sensor_id;sensor_type;location;lat;lon;timestamp;P1;durP1;ratioP1;P2;durP2;ratioP2
42146;SDS011;27815;43.410;11.852;2022-09-09T00:03:02;15.70;;;14.18;;
42146;SDS011;27815;43.410;11.852;2022-09-09T00:07:25;19.80;;;15.43;;
42146;SDS011;27815;43.410;11.852;2022-09-09T00:11:51;16.70;;;15.43;;
42146;SDS011;27815;43.410;11.852;2022-09-09T00:20:43;18.55;;;16.92;;
42146;SDS011;27815;43.410;11.852;2022-09-09T00:25:12;17.73;;;16.15;;
42146;SDS011;27815;43.410;11.852;2022-09-09T00:29:23;15.45;;;13.85;;
42146;SDS011;27815;43.410;11.852;2022-09-09T00:42:43;13.30;;;12.23;;
42146;SDS011;27815;43.410;11.852;2022-09-09T00:51:27;15.30;;;11.73;;
42146;SDS011;27815;43.410;11.852;2022-09-09T00:56:20;12.82;;;11.60;;
42146;SDS011;27815;43.410;11.852;2022-09-09T01:04:28;14.55;;;11.32;;
42146;SDS011;27815;43.410;11.852;2022-09-09T01:13:36;13.27;;;11.98;;
42146;SDS011;27815;43.410;11.852;2022-09-09T01:22:18;14.00;;;11.55;;
42146;SDS011;27815;43.410;11.852;2022-09-09T01:26:44;12.25;;;10.68;;
42146;SDS011;27815;43.410;11.852;2022-09-09T01:30:57;13.60;;;12.23;;
42146;SDS011;27815;43.410;11.852;2022-09-09T01:39:39;13.15;;;11.95;;
42146;SDS011;27815;43.410;11.852;2022-09-09T01:43:46;13.05;;;11.80;;
42146;SDS011;27815;43.410;11.852;2022-09-09T01:47:50;14.10;;;12.90;;
42146;SDS011;27815;43.410;11.852;2022-09-09T01:52:11;14.32;;;13.10;;
42146;SDS011;27815;43.410;11.852;2022-09-09T01:56:22;16.15;;;14.48;;
42146;SDS011;27815;43.410;11.852;2022-09-09T02:00:35;14.43;;;13.15;;
42146;SDS011;27815;43.410;11.852;2022-09-09T02:04:44;13.35;;;11.98;;
42146;SDS011;27815;43.410;11.852;2022-09-09T02:08:55;15.02;;;11.30;;
42146;SDS011;27815;43.410;11.852;2022-09-09T02:13:13;12.85;;;10.00;;
42146;SDS011;27815;43.410;11.852;2022-09-09T02:17:19;11.77;;;10.27;;
42146;SDS011;27815;43.410;11.852;2022-09-09T02:21:42;15.88;;;11.02;;
42146;SDS011;27815;43.410;11.852;2022-09-09T02:25:47;12.75;;;11.65;;
42146;SDS011;27815;43.410;11.852;2022-09-09T02:29:57;14.52;;;13.00;;
42146;SDS011;27815;43.410;11.852;2022-09-09T02:34:16;16.80;;;14.63;;
42146;SDS011;27815;43.410;11.852;2022-09-09T02:38:23;18.25;;;16.23;;
42146;SDS011;27815;43.410;11.852;2022-09-09T02:42:40;16.88;;;15.48;;
42146;SDS011;27815;43.410;11.852;2022-09-09T02:46:53;19.20;;;17.60;;
42146;SDS011;27815;43.410;11.852;2022-09-09T02:51:07;19.70;;;18.27;;
42146;SDS011;27815;43.410;11.852;2022-09-09T02:55:17;18.17;;;16.42;;
42146;SDS011;27815;43.410;11.852;2022-09-09T02:59:33;19.45;;;17.23;;
42146;SDS011;27815;43.410;11.852;2022-09-09T03:03:36;20.25;;;18.33;;
42146;SDS011;27815;43.410;11.852;2022-09-09T03:07:44;23.85;;;22.05;;
42146;SDS011;27815;43.410;11.852;2022-09-09T03:11:48;22.13;;;20.20;;
42146;SDS011;27815;43.410;11.852;2022-09-09T03:15:52;21.27;;;19.50;;
42146;SDS011;27815;43.410;11.852;2022-09-09T03:19:56;23.60;;;21.35;;
42146;SDS011;27815;43.410;11.852;2022-09-09T03:24:01;20.05;;;18.58;;
42146;SDS011;27815;43.410;11.852;2022-09-09T03:28:05;23.48;;;21.30;;
42146;SDS011;27815;43.410;11.852;2022-09-09T03:32:08;22.17;;;20.25;;
42146;SDS011;27815;43.410;11.852;2022-09-09T03:36:13;24.83;;;22.75;;
42146;SDS011;27815;43.410;11.852;2022-09-09T03:40:17;28.95;;;26.05;;
42146;SDS011;27815;43.410;11.852;2022-09-09T03:44:21;27.05;;;25.15;;
42146;SDS011;27815;43.410;11.852;2022-09-09T03:48:24;25.98;;;24.10;;
42146;SDS011;27815;43.410;11.852;2022-09-09T03:52:30;31.10;;;29.17;;
42146;SDS011;27815;43.410;11.852;2022-09-09T03:56:34;42.38;;;39.75;;
42146;SDS011;27815;43.410;11.852;2022-09-09T04:00:37;43.33;;;40.70;;
42146;SDS011;27815;43.410;11.852;2022-09-09T04:04:44;45.80;;;42.97;;
42146;SDS011;27815;43.410;11.852;2022-09-09T04:08:47;50.35;;;47.60;;
42146;SDS011;27815;43.410;11.852;2022-09-09T04:12:55;59.10;;;55.60;;
42146;SDS011;27815;43.410;11.852;2022-09-09T04:16:57;56.47;;;53.75;;
42146;SDS011;27815;43.410;11.852;2022-09-09T04:21:01;59.08;;;55.67;;
42146;SDS011;27815;43.410;11.852;2022-09-09T04:25:07;59.58;;;56.03;;
42146;SDS011;27815;43.410;11.852;2022-09-09T04:29:10;62.70;;;59.63;;
42146;SDS011;27815;43.410;11.852;2022-09-09T04:33:14;61.63;;;57.38;;
42146;SDS011;27815;43.410;11.852;2022-09-09T04:37:17;62.15;;;58.92;;
42146;SDS011;27815;43.410;11.852;2022-09-09T04:41:20;60.53;;;57.15;;
42146;SDS011;27815;43.410;11.852;2022-09-09T04:45:26;55.30;;;52.50;;
42146;SDS011;27815;43.410;11.852;2022-09-09T04:49:29;54.50;;;51.03;;
42146;SDS011;27815;43.410;11.852;2022-09-09T04:53:33;49.30;;;46.80;;
42146;SDS011;27815;43.410;11.852;2022-09-09T04:57:37;52.70;;;49.53;;
42146;SDS011;27815;43.410;11.852;2022-09-09T05:01:40;50.45;;;47.53;;
42146;SDS011;27815;43.410;11.852;2022-09-09T05:05:43;54.20;;;51.17;;
42146;SDS011;27815;43.410;11.852;2022-09-09T05:09:47;54.75;;;51.55;;
42146;SDS011;27815;43.410;11.852;2022-09-09T05:13:51;62.00;;;58.13;;
42146;SDS011;27815;43.410;11.852;2022-09-09T05:17:58;57.10;;;54.20;;
42146;SDS011;27815;43.410;11.852;2022-09-09T05:22:04;48.00;;;45.55;;
42146;SDS011;27815;43.410;11.852;2022-09-09T05:26:16;46.35;;;43.90;;
42146;SDS011;27815;43.410;11.852;2022-09-09T05:30:23;51.63;;;48.28;;
42146;SDS011;27815;43.410;11.852;2022-09-09T05:34:29;49.67;;;47.03;;
42146;SDS011;27815;43.410;11.852;2022-09-09T05:38:32;53.13;;;49.78;;
42146;SDS011;27815;43.410;11.852;2022-09-09T05:42:36;49.25;;;46.40;;
42146;SDS011;27815;43.410;11.852;2022-09-09T05:46:39;57.65;;;53.90;;
42146;SDS011;27815;43.410;11.852;2022-09-09T05:50:42;65.40;;;61.75;;
42146;SDS011;27815;43.410;11.852;2022-09-09T05:54:48;70.90;;;66.80;;
42146;SDS011;27815;43.410;11.852;2022-09-09T05:58:51;74.80;;;70.72;;
42146;SDS011;27815;43.410;11.852;2022-09-09T06:02:59;80.25;;;76.15;;
42146;SDS011;27815;43.410;11.852;2022-09-09T06:07:02;80.28;;;75.90;;
42146;SDS011;27815;43.410;11.852;2022-09-09T06:11:15;53.92;;;50.53;;
42146;SDS011;27815;43.410;11.852;2022-09-09T06:15:20;85.20;;;80.90;;
42146;SDS011;27815;43.410;11.852;2022-09-09T06:19:23;80.72;;;76.25;;
42146;SDS011;27815;43.410;11.852;2022-09-09T06:23:31;77.13;;;72.63;;
42146;SDS011;27815;43.410;11.852;2022-09-09T06:27:34;77.20;;;73.07;;
42146;SDS011;27815;43.410;11.852;2022-09-09T06:31:37;74.80;;;70.13;;
42146;SDS011;27815;43.410;11.852;2022-09-09T06:35:53;67.20;;;62.92;;
42146;SDS011;27815;43.410;11.852;2022-09-09T06:39:59;67.18;;;63.70;;
42146;SDS011;27815;43.410;11.852;2022-09-09T06:44:03;71.03;;;67.45;;
42146;SDS011;27815;43.410;11.852;2022-09-09T06:48:14;67.47;;;63.83;;
42146;SDS011;27815;43.410;11.852;2022-09-09T06:52:17;56.60;;;53.65;;
42146;SDS011;27815;43.410;11.852;2022-09-09T07:00:31;43.75;;;41.05;;
42146;SDS011;27815;43.410;11.852;2022-09-09T07:04:34;21.85;;;20.17;;
42146;SDS011;27815;43.410;11.852;2022-09-09T07:08:39;16.85;;;13.38;;
42146;SDS011;27815;43.410;11.852;2022-09-09T07:12:42;15.63;;;10.90;;
42146;SDS011;27815;43.410;11.852;2022-09-09T07:16:46;14.20;;;10.43;;
42146;SDS011;27815;43.410;11.852;2022-09-09T07:20:55;14.23;;;10.25;;
42146;SDS011;27815;43.410;11.852;2022-09-09T07:25:00;14.20;;;9.95;;
42146;SDS011;27815;43.410;11.852;2022-09-09T07:29:04;10.65;;;9.57;;
42146;SDS011;27815;43.410;11.852;2022-09-09T07:33:08;15.05;;;13.45;;
42146;SDS011;27815;43.410;11.852;2022-09-09T07:37:12;18.67;;;13.93;;
42146;SDS011;27815;43.410;11.852;2022-09-09T07:41:22;15.77;;;14.20;;
42146;SDS011;27815;43.410;11.852;2022-09-09T07:45:58;20.17;;;18.27;;
42146;SDS011;27815;43.410;11.852;2022-09-09T07:50:03;20.70;;;18.58;;
42146;SDS011;27815;43.410;11.852;2022-09-09T07:54:08;16.30;;;14.77;;
42146;SDS011;27815;43.410;11.852;2022-09-09T07:58:16;20.88;;;18.95;;
42146;SDS011;27815;43.410;11.852;2022-09-09T08:02:19;13.15;;;11.13;;
42146;SDS011;27815;43.410;11.852;2022-09-09T08:06:22;10.25;;;9.15;;
42146;SDS011;27815;43.410;11.852;2022-09-09T08:10:27;17.13;;;10.35;;
42146;SDS011;27815;43.410;11.852;2022-09-09T08:14:30;12.48;;;10.30;;
42146;SDS011;27815;43.410;11.852;2022-09-09T08:18:33;18.50;;;17.00;;
42146;SDS011;27815;43.410;11.852;2022-09-09T08:22:36;22.65;;;20.63;;
42146;SDS011;27815;43.410;11.852;2022-09-09T08:26:43;20.63;;;18.92;;
42146;SDS011;27815;43.410;11.852;2022-09-09T08:30:49;16.25;;;14.93;;
42146;SDS011;27815;43.410;11.852;2022-09-09T08:34:57;19.42;;;18.10;;
42146;SDS011;27815;43.410;11.852;2022-09-09T08:43:07;19.48;;;18.17;;
42146;SDS011;27815;43.410;11.852;2022-09-09T08:51:49;17.52;;;16.05;;
42146;SDS011;27815;43.410;11.852;2022-09-09T08:55:53;13.52;;;12.23;;
42146;SDS011;27815;43.410;11.852;2022-09-09T09:00:11;11.75;;;10.73;;
42146;SDS011;27815;43.410;11.852;2022-09-09T09:09:01;11.50;;;10.50;;
42146;SDS011;27815;43.410;11.852;2022-09-09T09:13:26;10.13;;;9.30;;
42146;SDS011;27815;43.410;11.852;2022-09-09T09:17:39;12.57;;;9.80;;
42146;SDS011;27815;43.410;11.852;2022-09-09T09:21:43;6.20;;;5.57;;
42146;SDS011;27815;43.410;11.852;2022-09-09T09:25:50;8.95;;;5.32;;
42146;SDS011;27815;43.410;11.852;2022-09-09T09:30:01;7.68;;;5.78;;
42146;SDS011;27815;43.410;11.852;2022-09-09T09:34:36;6.05;;;2.80;;
42146;SDS011;27815;43.410;11.852;2022-09-09T09:38:54;7.22;;;3.13;;
42146;SDS011;27815;43.410;11.852;2022-09-09T09:43:21;5.72;;;3.13;;
42146;SDS011;27815;43.410;11.852;2022-09-09T09:47:40;8.95;;;3.13;;
42146;SDS011;27815;43.410;11.852;2022-09-09T09:51:46;7.95;;;3.60;;
42146;SDS011;27815;43.410;11.852;2022-09-09T09:55:52;7.47;;;3.72;;
42146;SDS011;27815;43.410;11.852;2022-09-09T10:00:13;9.55;;;3.97;;
42146;SDS011;27815;43.410;11.852;2022-09-09T10:04:26;5.18;;;2.90;;
42146;SDS011;27815;43.410;11.852;2022-09-09T10:08:33;6.20;;;2.50;;
42146;SDS011;27815;43.410;11.852;2022-09-09T10:12:55;5.25;;;1.83;;
42146;SDS011;27815;43.410;11.852;2022-09-09T10:17:17;8.50;;;2.85;;
42146;SDS011;27815;43.410;11.852;2022-09-09T10:26:06;3.38;;;1.50;;
42146;SDS011;27815;43.410;11.852;2022-09-09T10:39:45;4.53;;;1.30;;
42146;SDS011;27815;43.410;11.852;2022-09-09T10:56:29;6.00;;;1.33;;
42146;SDS011;27815;43.410;11.852;2022-09-09T11:00:38;4.15;;;1.27;;
42146;SDS011;27815;43.410;11.852;2022-09-09T11:04:49;4.47;;;1.17;;
42146;SDS011;27815;43.410;11.852;2022-09-09T11:08:53;3.05;;;1.35;;
42146;SDS011;27815;43.410;11.852;2022-09-09T11:12:59;5.85;;;1.10;;
42146;SDS011;27815;43.410;11.852;2022-09-09T11:17:13;2.95;;;1.45;;
42146;SDS011;27815;43.410;11.852;2022-09-09T11:21:22;3.72;;;1.10;;
42146;SDS011;27815;43.410;11.852;2022-09-09T11:42:49;2.97;;;1.13;;
42146;SDS011;27815;43.410;11.852;2022-09-09T11:47:02;5.38;;;1.00;;
42146;SDS011;27815;43.410;11.852;2022-09-09T11:51:10;3.75;;;1.05;;
42146;SDS011;27815;43.410;11.852;2022-09-09T11:55:29;4.20;;;1.25;;
42146;SDS011;27815;43.410;11.852;2022-09-09T11:59:35;2.13;;;0.85;;
42146;SDS011;27815;43.410;11.852;2022-09-09T12:12:07;2.03;;;0.80;;
42146;SDS011;27815;43.410;11.852;2022-09-09T12:16:35;3.87;;;1.00;;
42146;SDS011;27815;43.410;11.852;2022-09-09T12:20:40;4.15;;;1.05;;
42146;SDS011;27815;43.410;11.852;2022-09-09T12:29:43;2.50;;;0.80;;
42146;SDS011;27815;43.410;11.852;2022-09-09T12:34:10;3.08;;;1.00;;
42146;SDS011;27815;43.410;11.852;2022-09-09T12:38:20;6.72;;;0.88;;
42146;SDS011;27815;43.410;11.852;2022-09-09T12:42:39;3.70;;;0.70;;
42146;SDS011;27815;43.410;11.852;2022-09-09T12:46:43;6.00;;;0.95;;
42146;SDS011;27815;43.410;11.852;2022-09-09T12:54:52;4.78;;;0.90;;
42146;SDS011;27815;43.410;11.852;2022-09-09T12:58:56;6.18;;;1.23;;
42146;SDS011;27815;43.410;11.852;2022-09-09T13:03:01;4.80;;;0.95;;
42146;SDS011;27815;43.410;11.852;2022-09-09T13:07:17;5.05;;;0.80;;
42146;SDS011;27815;43.410;11.852;2022-09-09T13:11:42;5.32;;;1.00;;
42146;SDS011;27815;43.410;11.852;2022-09-09T13:15:56;2.83;;;0.80;;
42146;SDS011;27815;43.410;11.852;2022-09-09T13:20:00;2.42;;;0.75;;
42146;SDS011;27815;43.410;11.852;2022-09-09T13:24:05;3.78;;;0.88;;
42146;SDS011;27815;43.410;11.852;2022-09-09T13:28:23;2.30;;;0.75;;
42146;SDS011;27815;43.410;11.852;2022-09-09T13:32:34;5.93;;;0.90;;
42146;SDS011;27815;43.410;11.852;2022-09-09T13:36:37;2.97;;;0.70;;
42146;SDS011;27815;43.410;11.852;2022-09-09T13:40:51;3.53;;;0.75;;
42146;SDS011;27815;43.410;11.852;2022-09-09T13:44:58;4.05;;;0.70;;
42146;SDS011;27815;43.410;11.852;2022-09-09T13:53:12;2.28;;;0.70;;
42146;SDS011;27815;43.410;11.852;2022-09-09T13:57:19;3.30;;;0.63;;
42146;SDS011;27815;43.410;11.852;2022-09-09T14:01:25;3.47;;;0.82;;
42146;SDS011;27815;43.410;11.852;2022-09-09T14:05:31;4.68;;;1.00;;
42146;SDS011;27815;43.410;11.852;2022-09-09T14:09:35;4.50;;;0.77;;
42146;SDS011;27815;43.410;11.852;2022-09-09T14:13:38;2.42;;;0.60;;
42146;SDS011;27815;43.410;11.852;2022-09-09T14:17:42;2.92;;;0.88;;
42146;SDS011;27815;43.410;11.852;2022-09-09T14:21:45;2.08;;;0.70;;
42146;SDS011;27815;43.410;11.852;2022-09-09T14:25:47;3.33;;;0.90;;
42146;SDS011;27815;43.410;11.852;2022-09-09T14:29:51;2.35;;;0.75;;
42146;SDS011;27815;43.410;11.852;2022-09-09T14:33:55;2.40;;;0.80;;
42146;SDS011;27815;43.410;11.852;2022-09-09T14:37:58;1.70;;;0.65;;
42146;SDS011;27815;43.410;11.852;2022-09-09T14:42:03;4.10;;;0.88;;
42146;SDS011;27815;43.410;11.852;2022-09-09T14:46:10;3.00;;;0.90;;
42146;SDS011;27815;43.410;11.852;2022-09-09T14:50:18;4.63;;;0.80;;
42146;SDS011;27815;43.410;11.852;2022-09-09T14:54:22;2.58;;;0.60;;
42146;SDS011;27815;43.410;11.852;2022-09-09T14:58:29;2.53;;;0.65;;
42146;SDS011;27815;43.410;11.852;2022-09-09T15:02:33;4.03;;;0.90;;
42146;SDS011;27815;43.410;11.852;2022-09-09T15:06:36;3.45;;;1.00;;
42146;SDS011;27815;43.410;11.852;2022-09-09T15:10:41;3.47;;;1.13;;
42146;SDS011;27815;43.410;11.852;2022-09-09T15:14:44;2.88;;;0.70;;
42146;SDS011;27815;43.410;11.852;2022-09-09T15:18:50;3.88;;;0.88;;
42146;SDS011;27815;43.410;11.852;2022-09-09T15:22:55;4.18;;;1.00;;
42146;SDS011;27815;43.410;11.852;2022-09-09T15:26:58;3.75;;;0.98;;
42146;SDS011;27815;43.410;11.852;2022-09-09T15:31:01;2.50;;;0.70;;
42146;SDS011;27815;43.410;11.852;2022-09-09T15:35:09;2.90;;;0.90;;
42146;SDS011;27815;43.410;11.852;2022-09-09T15:39:13;3.78;;;1.30;;
42146;SDS011;27815;43.410;11.852;2022-09-09T15:43:17;7.32;;;1.27;;
42146;SDS011;27815;43.410;11.852;2022-09-09T15:47:20;4.22;;;0.70;;
42146;SDS011;27815;43.410;11.852;2022-09-09T15:51:24;3.88;;;0.90;;
42146;SDS011;27815;43.410;11.852;2022-09-09T15:55:45;2.88;;;1.00;;
42146;SDS011;27815;43.410;11.852;2022-09-09T15:59:48;4.47;;;1.20;;
42146;SDS011;27815;43.410;11.852;2022-09-09T16:03:50;3.92;;;1.10;;
42146;SDS011;27815;43.410;11.852;2022-09-09T16:07:53;5.38;;;1.00;;
42146;SDS011;27815;43.410;11.852;2022-09-09T16:11:57;2.28;;;0.90;;
42146;SDS011;27815;43.410;11.852;2022-09-09T16:16:01;4.75;;;1.33;;
42146;SDS011;27815;43.410;11.852;2022-09-09T16:20:05;3.72;;;1.10;;
42146;SDS011;27815;43.410;11.852;2022-09-09T16:24:14;5.10;;;1.70;;
42146;SDS011;27815;43.410;11.852;2022-09-09T16:28:20;5.00;;;1.33;;
42146;SDS011;27815;43.410;11.852;2022-09-09T16:32:23;3.35;;;1.08;;
42146;SDS011;27815;43.410;11.852;2022-09-09T16:36:28;3.22;;;0.80;;
42146;SDS011;27815;43.410;11.852;2022-09-09T16:40:36;4.95;;;1.48;;
42146;SDS011;27815;43.410;11.852;2022-09-09T16:44:39;4.68;;;1.70;;
42146;SDS011;27815;43.410;11.852;2022-09-09T16:48:44;3.50;;;1.55;;
42146;SDS011;27815;43.410;11.852;2022-09-09T16:52:48;4.78;;;1.90;;
42146;SDS011;27815;43.410;11.852;2022-09-09T16:56:51;4.55;;;1.30;;
42146;SDS011;27815;43.410;11.852;2022-09-09T17:00:57;3.95;;;0.98;;
42146;SDS011;27815;43.410;11.852;2022-09-09T17:05:00;5.95;;;1.30;;
42146;SDS011;27815;43.410;11.852;2022-09-09T17:09:05;3.72;;;1.17;;
42146;SDS011;27815;43.410;11.852;2022-09-09T17:13:10;4.28;;;0.98;;
42146;SDS011;27815;43.410;11.852;2022-09-09T17:17:14;3.78;;;0.98;;
42146;SDS011;27815;43.410;11.852;2022-09-09T17:21:33;4.57;;;1.00;;
42146;SDS011;27815;43.410;11.852;2022-09-09T17:25:36;4.55;;;1.50;;
42146;SDS011;27815;43.410;11.852;2022-09-09T17:29:40;4.50;;;1.15;;
42146;SDS011;27815;43.410;11.852;2022-09-09T17:33:44;6.20;;;1.27;;
42146;SDS011;27815;43.410;11.852;2022-09-09T17:37:50;5.28;;;1.00;;
42146;SDS011;27815;43.410;11.852;2022-09-09T17:41:54;3.38;;;1.23;;
42146;SDS011;27815;43.410;11.852;2022-09-09T17:46:13;4.03;;;1.55;;
42146;SDS011;27815;43.410;11.852;2022-09-09T17:50:18;7.50;;;1.60;;
42146;SDS011;27815;43.410;11.852;2022-09-09T17:54:21;5.82;;;1.65;;
42146;SDS011;27815;43.410;11.852;2022-09-09T17:58:24;5.88;;;1.98;;
42146;SDS011;27815;43.410;11.852;2022-09-09T18:02:28;5.63;;;1.88;;
42146;SDS011;27815;43.410;11.852;2022-09-09T18:06:32;4.45;;;1.75;;
42146;SDS011;27815;43.410;11.852;2022-09-09T18:10:38;4.53;;;1.38;;
42146;SDS011;27815;43.410;11.852;2022-09-09T18:14:41;5.30;;;1.42;;
42146;SDS011;27815;43.410;11.852;2022-09-09T18:18:44;5.05;;;1.83;;
42146;SDS011;27815;43.410;11.852;2022-09-09T18:22:48;7.72;;;1.67;;
42146;SDS011;27815;43.410;11.852;2022-09-09T18:26:50;5.50;;;1.42;;
42146;SDS011;27815;43.410;11.852;2022-09-09T18:30:54;5.50;;;1.38;;
42146;SDS011;27815;43.410;11.852;2022-09-09T18:34:57;6.40;;;1.73;;
42146;SDS011;27815;43.410;11.852;2022-09-09T18:39:01;9.10;;;1.80;;
42146;SDS011;27815;43.410;11.852;2022-09-09T18:43:06;6.25;;;1.52;;
42146;SDS011;27815;43.410;11.852;2022-09-09T18:47:09;8.27;;;1.48;;
42146;SDS011;27815;43.410;11.852;2022-09-09T18:51:13;10.05;;;1.60;;
42146;SDS011;27815;43.410;11.852;2022-09-09T18:55:17;10.27;;;2.15;;
42146;SDS011;27815;43.410;11.852;2022-09-09T18:59:21;5.30;;;1.50;;
42146;SDS011;27815;43.410;11.852;2022-09-09T19:03:25;4.35;;;1.80;;
42146;SDS011;27815;43.410;11.852;2022-09-09T19:07:29;6.93;;;2.10;;
42146;SDS011;27815;43.410;11.852;2022-09-09T19:11:32;5.20;;;1.65;;
42146;SDS011;27815;43.410;11.852;2022-09-09T19:15:35;8.07;;;2.25;;
42146;SDS011;27815;43.410;11.852;2022-09-09T19:19:38;6.07;;;2.00;;
42146;SDS011;27815;43.410;11.852;2022-09-09T19:23:47;5.18;;;2.17;;
42146;SDS011;27815;43.410;11.852;2022-09-09T19:27:55;5.25;;;1.88;;
42146;SDS011;27815;43.410;11.852;2022-09-09T19:32:00;7.93;;;2.08;;
42146;SDS011;27815;43.410;11.852;2022-09-09T19:36:24;5.38;;;1.90;;
42146;SDS011;27815;43.410;11.852;2022-09-09T19:40:30;6.88;;;2.30;;
42146;SDS011;27815;43.410;11.852;2022-09-09T19:44:36;7.53;;;2.13;;
42146;SDS011;27815;43.410;11.852;2022-09-09T19:48:39;8.10;;;2.70;;
42146;SDS011;27815;43.410;11.852;2022-09-09T19:52:43;7.82;;;2.40;;
42146;SDS011;27815;43.410;11.852;2022-09-09T19:56:46;6.45;;;2.20;;
42146;SDS011;27815;43.410;11.852;2022-09-09T20:00:49;4.43;;;2.05;;
42146;SDS011;27815;43.410;11.852;2022-09-09T20:04:52;5.57;;;2.30;;
42146;SDS011;27815;43.410;11.852;2022-09-09T20:09:01;8.63;;;2.50;;
42146;SDS011;27815;43.410;11.852;2022-09-09T20:13:05;5.95;;;2.40;;
42146;SDS011;27815;43.410;11.852;2022-09-09T20:17:08;5.95;;;2.40;;
42146;SDS011;27815;43.410;11.852;2022-09-09T20:21:15;9.73;;;2.58;;
42146;SDS011;27815;43.410;11.852;2022-09-09T20:25:22;7.28;;;2.13;;
42146;SDS011;27815;43.410;11.852;2022-09-09T20:29:25;5.85;;;2.55;;
42146;SDS011;27815;43.410;11.852;2022-09-09T20:33:28;8.15;;;2.53;;
42146;SDS011;27815;43.410;11.852;2022-09-09T20:37:32;9.43;;;2.70;;
42146;SDS011;27815;43.410;11.852;2022-09-09T20:41:35;6.72;;;2.53;;
42146;SDS011;27815;43.410;11.852;2022-09-09T20:45:40;5.85;;;2.42;;
42146;SDS011;27815;43.410;11.852;2022-09-09T20:49:44;14.05;;;3.33;;
42146;SDS011;27815;43.410;11.852;2022-09-09T20:53:52;6.60;;;2.40;;
42146;SDS011;27815;43.410;11.852;2022-09-09T20:58:00;5.72;;;2.75;;
42146;SDS011;27815;43.410;11.852;2022-09-09T21:02:03;9.60;;;2.95;;
42146;SDS011;27815;43.410;11.852;2022-09-09T21:06:07;9.50;;;2.53;;
42146;SDS011;27815;43.410;11.852;2022-09-09T21:10:09;7.80;;;2.70;;
42146;SDS011;27815;43.410;11.852;2022-09-09T21:14:13;8.57;;;2.72;;
42146;SDS011;27815;43.410;11.852;2022-09-09T21:18:16;6.25;;;2.60;;
42146;SDS011;27815;43.410;11.852;2022-09-09T21:22:20;6.43;;;2.53;;
42146;SDS011;27815;43.410;11.852;2022-09-09T21:26:23;7.47;;;2.30;;
42146;SDS011;27815;43.410;11.852;2022-09-09T21:30:26;4.78;;;2.45;;
42146;SDS011;27815;43.410;11.852;2022-09-09T21:34:41;6.65;;;2.65;;
42146;SDS011;27815;43.410;11.852;2022-09-09T21:38:45;6.60;;;2.50;;
42146;SDS011;27815;43.410;11.852;2022-09-09T21:42:47;6.78;;;2.58;;
42146;SDS011;27815;43.410;11.852;2022-09-09T21:46:50;5.32;;;2.70;;
42146;SDS011;27815;43.410;11.852;2022-09-09T21:50:54;7.10;;;2.60;;
42146;SDS011;27815;43.410;11.852;2022-09-09T21:54:57;7.18;;;2.72;;
42146;SDS011;27815;43.410;11.852;2022-09-09T21:58:59;5.82;;;2.75;;
42146;SDS011;27815;43.410;11.852;2022-09-09T22:03:05;7.95;;;2.40;;
42146;SDS011;27815;43.410;11.852;2022-09-09T22:07:09;7.68;;;3.08;;
42146;SDS011;27815;43.410;11.852;2022-09-09T22:11:16;9.27;;;2.70;;
42146;SDS011;27815;43.410;11.852;2022-09-09T22:15:23;5.25;;;2.90;;
42146;SDS011;27815;43.410;11.852;2022-09-09T22:19:26;11.00;;;3.67;;
42146;SDS011;27815;43.410;11.852;2022-09-09T22:23:29;4.97;;;3.08;;
42146;SDS011;27815;43.410;11.852;2022-09-09T22:27:32;4.82;;;3.42;;
42146;SDS011;27815;43.410;11.852;2022-09-09T22:31:35;9.32;;;3.55;;
42146;SDS011;27815;43.410;11.852;2022-09-09T22:35:39;4.88;;;3.35;;
42146;SDS011;27815;43.410;11.852;2022-09-09T22:39:46;6.43;;;3.45;;
42146;SDS011;27815;43.410;11.852;2022-09-09T22:48:35;7.40;;;3.83;;
42146;SDS011;27815;43.410;11.852;2022-09-09T22:53:03;5.93;;;3.95;;
42146;SDS011;27815;43.410;11.852;2022-09-09T22:57:54;7.50;;;4.53;;
42146;SDS011;27815;43.410;11.852;2022-09-09T23:02:42;6.15;;;3.63;;
42146;SDS011;27815;43.410;11.852;2022-09-09T23:07:35;6.18;;;4.32;;
42146;SDS011;27815;43.410;11.852;2022-09-09T23:11:57;8.50;;;4.78;;
42146;SDS011;27815;43.410;11.852;2022-09-09T23:16:35;7.53;;;5.15;;
42146;SDS011;27815;43.410;11.852;2022-09-09T23:21:52;7.55;;;4.25;;
42146;SDS011;27815;43.410;11.852;2022-09-09T23:26:41;9.65;;;4.20;;
42146;SDS011;27815;43.410;11.852;2022-09-09T23:31:29;7.70;;;3.97;;
42146;SDS011;27815;43.410;11.852;2022-09-09T23:36:01;7.55;;;3.83;;
42146;SDS011;27815;43.410;11.852;2022-09-09T23:40:25;5.82;;;3.50;;
42146;SDS011;27815;43.410;11.852;2022-09-09T23:44:45;8.32;;;3.85;;
42146;SDS011;27815;43.410;11.852;2022-09-09T23:49:23;9.02;;;3.70;;
42146;SDS011;27815;43.410;11.852;2022-09-09T23:53:44;7.18;;;3.00;;
42146;SDS011;27815;43.410;11.852;2022-09-09T23:58:06;8.18;;;5.28;;
